sensor_id;sensor_type;location;lat;lon;timestamp;pressure;altitude;pressure_sealevel;temperature;humidity
35023;BME280;21214;44.912;8.204;2023-06-22T00:01:22;99981.63;;;22.73;88.69
35023;BME280;21214;44.912;8.204;2023-06-22T00:03:48;99992.16;;;22.75;87.98
35023;BME280;21214;44.912;8.204;2023-06-22T00:06:14;99987.22;;;22.78;86.93
35023;BME280;21214;44.912;8.204;2023-06-22T00:08:39;99995.03;;;22.80;86.98
35023;BME280;21214;44.912;8.204;2023-06-22T00:11:05;99995.88;;;22.80;87.75
35023;BME280;21214;44.912;8.204;2023-06-22T00:13:31;99989.91;;;22.78;87.95
35023;BME280;21214;44.912;8.204;2023-06-22T00:15:56;99990.94;;;22.77;88.41
35023;BME280;21214;44.912;8.204;2023-06-22T00:18:21;99987.81;;;22.74;89.57
35023;BME280;21214;44.912;8.204;2023-06-22T00:20:47;99996.28;;;22.71;90.59
35023;BME280;21214;44.912;8.204;2023-06-22T00:23:12;99988.03;;;22.66;91.56
35023;BME280;21214;44.912;8.204;2023-06-22T00:25:39;99986.81;;;22.62;93.23
35023;BME280;21214;44.912;8.204;2023-06-22T00:28:07;99980.38;;;22.63;94.32
35023;BME280;21214;44.912;8.204;2023-06-22T00:30:34;99985.16;;;22.61;95.79
35023;BME280;21214;44.912;8.204;2023-06-22T00:32:59;99991.75;;;22.65;95.29
35023;BME280;21214;44.912;8.204;2023-06-22T00:35:26;99995.47;;;22.64;95.51
35023;BME280;21214;44.912;8.204;2023-06-22T00:37:55;99999.22;;;22.56;96.06
35023;BME280;21214;44.912;8.204;2023-06-22T00:40:35;99998.59;;;22.61;95.75
35023;BME280;21214;44.912;8.204;2023-06-22T00:43:00;100004.00;;;22.48;96.63
35023;BME280;21214;44.912;8.204;2023-06-22T00:45:26;99999.44;;;22.28;98.87
35023;BME280;21214;44.912;8.204;2023-06-22T00:47:58;99992.22;;;21.96;100.00
35023;BME280;21214;44.912;8.204;2023-06-22T00:50:27;99986.16;;;21.68;100.00
35023;BME280;21214;44.912;8.204;2023-06-22T00:52:57;99986.31;;;21.46;100.00
35023;BME280;21214;44.912;8.204;2023-06-22T00:55:24;99978.03;;;21.41;100.00
35023;BME280;21214;44.912;8.204;2023-06-22T00:57:51;99962.34;;;21.32;100.00
35023;BME280;21214;44.912;8.204;2023-06-22T01:00:21;99955.66;;;21.21;100.00
35023;BME280;21214;44.912;8.204;2023-06-22T01:02:49;99959.53;;;21.12;100.00
35023;BME280;21214;44.912;8.204;2023-06-22T01:05:17;99950.31;;;21.21;100.00
35023;BME280;21214;44.912;8.204;2023-06-22T01:10:40;99961.94;;;21.41;100.00
35023;BME280;21214;44.912;8.204;2023-06-22T01:13:08;99969.78;;;21.36;100.00
35023;BME280;21214;44.912;8.204;2023-06-22T01:15:40;99987.97;;;21.47;100.00
35023;BME280;21214;44.912;8.204;2023-06-22T01:18:11;99992.91;;;21.37;100.00
35023;BME280;21214;44.912;8.204;2023-06-22T01:20:38;99981.75;;;21.40;100.00
35023;BME280;21214;44.912;8.204;2023-06-22T01:23:09;99980.94;;;21.46;100.00
35023;BME280;21214;44.912;8.204;2023-06-22T01:29:06;99961.53;;;21.57;100.00
35023;BME280;21214;44.912;8.204;2023-06-22T01:31:10;99963.22;;;21.72;100.00
35023;BME280;21214;44.912;8.204;2023-06-22T01:33:37;99960.13;;;21.75;100.00
35023;BME280;21214;44.912;8.204;2023-06-22T01:36:04;99961.59;;;21.84;100.00
35023;BME280;21214;44.912;8.204;2023-06-22T01:38:30;99956.22;;;21.90;100.00
35023;BME280;21214;44.912;8.204;2023-06-22T01:40:57;99948.56;;;21.94;100.00
35023;BME280;21214;44.912;8.204;2023-06-22T01:43:23;99947.97;;;21.98;100.00
35023;BME280;21214;44.912;8.204;2023-06-22T01:45:49;99955.22;;;21.98;100.00
35023;BME280;21214;44.912;8.204;2023-06-22T01:48:15;99954.81;;;22.01;100.00
35023;BME280;21214;44.912;8.204;2023-06-22T01:50:42;99947.59;;;22.08;100.00
35023;BME280;21214;44.912;8.204;2023-06-22T01:53:10;99939.91;;;22.12;100.00
35023;BME280;21214;44.912;8.204;2023-06-22T01:55:35;99950.47;;;22.13;100.00
35023;BME280;21214;44.912;8.204;2023-06-22T01:58:00;99960.78;;;22.16;100.00
35023;BME280;21214;44.912;8.204;2023-06-22T02:00:26;99974.03;;;22.11;100.00
35023;BME280;21214;44.912;8.204;2023-06-22T02:02:56;99976.50;;;22.06;100.00
35023;BME280;21214;44.912;8.204;2023-06-22T02:05:24;99957.50;;;22.01;100.00
35023;BME280;21214;44.912;8.204;2023-06-22T02:07:53;99956.47;;;22.02;100.00
35023;BME280;21214;44.912;8.204;2023-06-22T02:10:22;99990.16;;;22.04;100.00
35023;BME280;21214;44.912;8.204;2023-06-22T02:12:48;100010.59;;;21.99;100.00
35023;BME280;21214;44.912;8.204;2023-06-22T02:15:15;100005.81;;;21.94;100.00
35023;BME280;21214;44.912;8.204;2023-06-22T02:17:42;100001.88;;;21.71;100.00
35023;BME280;21214;44.912;8.204;2023-06-22T02:20:13;100009.28;;;21.08;100.00
35023;BME280;21214;44.912;8.204;2023-06-22T02:22:40;100000.38;;;21.01;100.00
35023;BME280;21214;44.912;8.204;2023-06-22T02:25:08;99997.69;;;21.01;100.00
35023;BME280;21214;44.912;8.204;2023-06-22T02:27:33;100005.53;;;21.09;100.00
35023;BME280;21214;44.912;8.204;2023-06-22T02:29:59;99989.69;;;21.14;100.00
35023;BME280;21214;44.912;8.204;2023-06-22T02:32:24;99973.44;;;21.22;100.00
35023;BME280;21214;44.912;8.204;2023-06-22T02:34:50;99975.31;;;21.28;100.00
35023;BME280;21214;44.912;8.204;2023-06-22T02:37:16;99974.31;;;21.36;100.00
35023;BME280;21214;44.912;8.204;2023-06-22T02:39:41;99962.75;;;21.42;100.00
35023;BME280;21214;44.912;8.204;2023-06-22T02:42:07;99962.16;;;21.46;100.00
35023;BME280;21214;44.912;8.204;2023-06-22T02:44:33;99962.78;;;21.48;100.00
35023;BME280;21214;44.912;8.204;2023-06-22T02:46:58;99955.31;;;21.50;100.00
35023;BME280;21214;44.912;8.204;2023-06-22T02:49:24;99942.97;;;21.49;100.00
35023;BME280;21214;44.912;8.204;2023-06-22T02:51:51;99955.56;;;21.49;100.00
35023;BME280;21214;44.912;8.204;2023-06-22T02:54:19;99957.44;;;21.55;100.00
35023;BME280;21214;44.912;8.204;2023-06-22T02:56:46;99957.84;;;21.58;100.00
35023;BME280;21214;44.912;8.204;2023-06-22T02:59:13;99949.78;;;21.58;100.00
35023;BME280;21214;44.912;8.204;2023-06-22T03:01:38;99945.03;;;21.60;100.00
35023;BME280;21214;44.912;8.204;2023-06-22T03:04:15;99934.31;;;21.60;100.00
35023;BME280;21214;44.912;8.204;2023-06-22T03:06:41;99925.63;;;21.58;100.00
35023;BME280;21214;44.912;8.204;2023-06-22T03:09:07;99922.28;;;21.56;100.00
35023;BME280;21214;44.912;8.204;2023-06-22T03:11:34;99933.03;;;21.43;100.00
35023;BME280;21214;44.912;8.204;2023-06-22T03:14:00;99941.91;;;21.44;100.00
35023;BME280;21214;44.912;8.204;2023-06-22T03:16:25;99949.50;;;21.34;100.00
35023;BME280;21214;44.912;8.204;2023-06-22T03:18:52;99941.28;;;21.35;100.00
35023;BME280;21214;44.912;8.204;2023-06-22T03:21:19;99932.00;;;21.38;100.00
35023;BME280;21214;44.912;8.204;2023-06-22T03:23:44;99926.41;;;21.39;100.00
35023;BME280;21214;44.912;8.204;2023-06-22T03:26:10;99925.59;;;21.45;100.00
35023;BME280;21214;44.912;8.204;2023-06-22T03:28:36;99924.97;;;21.43;100.00
35023;BME280;21214;44.912;8.204;2023-06-22T03:31:02;99929.31;;;21.51;100.00
35023;BME280;21214;44.912;8.204;2023-06-22T03:33:29;99938.22;;;21.58;100.00
35023;BME280;21214;44.912;8.204;2023-06-22T03:35:57;99945.44;;;21.57;100.00
35023;BME280;21214;44.912;8.204;2023-06-22T03:38:22;99939.66;;;21.60;100.00
35023;BME280;21214;44.912;8.204;2023-06-22T03:40:51;99958.25;;;21.55;100.00
35023;BME280;21214;44.912;8.204;2023-06-22T03:43:16;99972.03;;;21.26;100.00
35023;BME280;21214;44.912;8.204;2023-06-22T03:45:42;99975.28;;;20.80;100.00
35023;BME280;21214;44.912;8.204;2023-06-22T03:48:11;99975.53;;;20.51;100.00
35023;BME280;21214;44.912;8.204;2023-06-22T03:50:37;99988.94;;;20.51;100.00
35023;BME280;21214;44.912;8.204;2023-06-22T03:53:02;99995.25;;;20.37;100.00
35023;BME280;21214;44.912;8.204;2023-06-22T03:55:28;99982.72;;;20.23;100.00
35023;BME280;21214;44.912;8.204;2023-06-22T03:57:53;99977.78;;;20.20;100.00
35023;BME280;21214;44.912;8.204;2023-06-22T04:00:23;99985.03;;;20.26;100.00
35023;BME280;21214;44.912;8.204;2023-06-22T04:02:49;100007.34;;;20.33;100.00
35023;BME280;21214;44.912;8.204;2023-06-22T04:05:14;100023.06;;;20.36;100.00
35023;BME280;21214;44.912;8.204;2023-06-22T04:07:40;100038.13;;;20.37;100.00
35023;BME280;21214;44.912;8.204;2023-06-22T04:10:06;100045.16;;;20.38;100.00
35023;BME280;21214;44.912;8.204;2023-06-22T04:12:31;100043.91;;;20.40;100.00
35023;BME280;21214;44.912;8.204;2023-06-22T04:14:57;100040.09;;;20.50;100.00
35023;BME280;21214;44.912;8.204;2023-06-22T04:17:23;100039.50;;;20.54;100.00
35023;BME280;21214;44.912;8.204;2023-06-22T04:19:50;100036.56;;;20.49;100.00
35023;BME280;21214;44.912;8.204;2023-06-22T04:22:15;100028.66;;;20.41;100.00
35023;BME280;21214;44.912;8.204;2023-06-22T04:24:41;100022.13;;;20.50;100.00
35023;BME280;21214;44.912;8.204;2023-06-22T04:27:06;100006.31;;;20.55;100.00
35023;BME280;21214;44.912;8.204;2023-06-22T04:29:31;100005.75;;;20.66;100.00
35023;BME280;21214;44.912;8.204;2023-06-22T04:31:57;100010.75;;;20.76;100.00
35023;BME280;21214;44.912;8.204;2023-06-22T04:34:24;100011.16;;;20.79;100.00
35023;BME280;21214;44.912;8.204;2023-06-22T04:36:51;100015.19;;;20.90;100.00
35023;BME280;21214;44.912;8.204;2023-06-22T04:39:17;100023.25;;;20.97;100.00
35023;BME280;21214;44.912;8.204;2023-06-22T04:41:42;100016.06;;;21.04;100.00
35023;BME280;21214;44.912;8.204;2023-06-22T04:44:11;100010.53;;;21.12;100.00
35023;BME280;21214;44.912;8.204;2023-06-22T04:46:36;100015.75;;;21.20;100.00
35023;BME280;21214;44.912;8.204;2023-06-22T04:49:06;100009.81;;;21.31;100.00
35023;BME280;21214;44.912;8.204;2023-06-22T04:51:39;100008.59;;;21.40;100.00
35023;BME280;21214;44.912;8.204;2023-06-22T04:54:05;100011.91;;;21.42;100.00
35023;BME280;21214;44.912;8.204;2023-06-22T04:56:31;100009.44;;;21.47;100.00
35023;BME280;21214;44.912;8.204;2023-06-22T04:58:56;100006.59;;;21.55;100.00
35023;BME280;21214;44.912;8.204;2023-06-22T05:01:22;100007.41;;;21.62;100.00
35023;BME280;21214;44.912;8.204;2023-06-22T05:03:48;100010.34;;;21.68;100.00
35023;BME280;21214;44.912;8.204;2023-06-22T05:06:13;100026.47;;;21.68;100.00
35023;BME280;21214;44.912;8.204;2023-06-22T05:08:39;100019.00;;;21.70;100.00
35023;BME280;21214;44.912;8.204;2023-06-22T05:11:05;100021.88;;;21.68;100.00
35023;BME280;21214;44.912;8.204;2023-06-22T05:13:30;100019.81;;;21.63;100.00
35023;BME280;21214;44.912;8.204;2023-06-22T05:15:56;100018.78;;;21.64;100.00
35023;BME280;21214;44.912;8.204;2023-06-22T05:18:27;100012.59;;;21.64;100.00
35023;BME280;21214;44.912;8.204;2023-06-22T05:20:52;100004.97;;;21.68;100.00
35023;BME280;21214;44.912;8.204;2023-06-22T05:23:19;100000.41;;;21.75;100.00
35023;BME280;21214;44.912;8.204;2023-06-22T05:25:44;99995.06;;;21.81;100.00
35023;BME280;21214;44.912;8.204;2023-06-22T05:28:09;99996.31;;;21.85;100.00
35023;BME280;21214;44.912;8.204;2023-06-22T05:30:36;99997.38;;;21.91;100.00
35023;BME280;21214;44.912;8.204;2023-06-22T05:33:01;100010.22;;;21.95;100.00
35023;BME280;21214;44.912;8.204;2023-06-22T05:35:27;100013.88;;;21.94;100.00
35023;BME280;21214;44.912;8.204;2023-06-22T05:37:52;100029.03;;;22.02;100.00
35023;BME280;21214;44.912;8.204;2023-06-22T05:40:18;100038.97;;;22.08;100.00
35023;BME280;21214;44.912;8.204;2023-06-22T05:42:43;100039.75;;;22.15;100.00
35023;BME280;21214;44.912;8.204;2023-06-22T05:45:09;100040.22;;;22.25;100.00
35023;BME280;21214;44.912;8.204;2023-06-22T05:47:34;100039.38;;;22.25;100.00
35023;BME280;21214;44.912;8.204;2023-06-22T05:49:59;100033.56;;;22.21;100.00
35023;BME280;21214;44.912;8.204;2023-06-22T05:52:25;100030.88;;;22.28;100.00
35023;BME280;21214;44.912;8.204;2023-06-22T05:54:50;100036.69;;;22.31;100.00
35023;BME280;21214;44.912;8.204;2023-06-22T05:57:15;100024.03;;;22.38;100.00
35023;BME280;21214;44.912;8.204;2023-06-22T05:59:41;100007.72;;;22.46;100.00
35023;BME280;21214;44.912;8.204;2023-06-22T06:02:06;100008.72;;;22.52;100.00
35023;BME280;21214;44.912;8.204;2023-06-22T06:04:32;100014.94;;;22.59;100.00
35023;BME280;21214;44.912;8.204;2023-06-22T06:06:57;100021.53;;;22.63;100.00
35023;BME280;21214;44.912;8.204;2023-06-22T06:09:22;100016.59;;;22.67;100.00
35023;BME280;21214;44.912;8.204;2023-06-22T06:11:48;100007.72;;;22.73;100.00
35023;BME280;21214;44.912;8.204;2023-06-22T06:14:13;99994.25;;;22.79;100.00
35023;BME280;21214;44.912;8.204;2023-06-22T06:16:38;99984.28;;;22.86;100.00
35023;BME280;21214;44.912;8.204;2023-06-22T06:19:04;99986.28;;;22.98;100.00
35023;BME280;21214;44.912;8.204;2023-06-22T06:21:29;99986.91;;;23.06;100.00
35023;BME280;21214;44.912;8.204;2023-06-22T06:23:54;99995.38;;;23.10;100.00
35023;BME280;21214;44.912;8.204;2023-06-22T06:26:20;99982.31;;;23.13;100.00
35023;BME280;21214;44.912;8.204;2023-06-22T06:28:53;99968.41;;;23.16;100.00
35023;BME280;21214;44.912;8.204;2023-06-22T06:31:18;99965.13;;;23.14;100.00
35023;BME280;21214;44.912;8.204;2023-06-22T06:33:43;99979.19;;;23.16;100.00
35023;BME280;21214;44.912;8.204;2023-06-22T06:36:09;100007.34;;;23.20;100.00
35023;BME280;21214;44.912;8.204;2023-06-22T06:38:34;100011.91;;;23.20;100.00
35023;BME280;21214;44.912;8.204;2023-06-22T06:41:00;100018.34;;;23.12;100.00
35023;BME280;21214;44.912;8.204;2023-06-22T06:43:25;100024.78;;;23.11;100.00
35023;BME280;21214;44.912;8.204;2023-06-22T06:48:43;100028.91;;;23.20;100.00
35023;BME280;21214;44.912;8.204;2023-06-22T06:51:09;100027.25;;;23.13;100.00
35023;BME280;21214;44.912;8.204;2023-06-22T06:53:35;100027.25;;;23.19;100.00
35023;BME280;21214;44.912;8.204;2023-06-22T06:56:01;100027.88;;;23.15;100.00
35023;BME280;21214;44.912;8.204;2023-06-22T06:58:26;100037.16;;;23.25;100.00
35023;BME280;21214;44.912;8.204;2023-06-22T07:00:51;100043.75;;;23.30;100.00
35023;BME280;21214;44.912;8.204;2023-06-22T07:03:17;100045.81;;;23.34;100.00
35023;BME280;21214;44.912;8.204;2023-06-22T07:05:43;100044.13;;;23.40;100.00
35023;BME280;21214;44.912;8.204;2023-06-22T07:08:09;100051.16;;;23.47;100.00
35023;BME280;21214;44.912;8.204;2023-06-22T07:10:35;100045.75;;;23.54;100.00
35023;BME280;21214;44.912;8.204;2023-06-22T07:13:00;100051.53;;;23.57;100.00
35023;BME280;21214;44.912;8.204;2023-06-22T07:15:26;100041.94;;;23.68;100.00
35023;BME280;21214;44.912;8.204;2023-06-22T07:17:51;100053.50;;;23.75;100.00
35023;BME280;21214;44.912;8.204;2023-06-22T07:20:17;100055.13;;;23.83;100.00
35023;BME280;21214;44.912;8.204;2023-06-22T07:22:43;100059.66;;;23.89;100.00
35023;BME280;21214;44.912;8.204;2023-06-22T07:25:08;100075.78;;;23.95;100.00
35023;BME280;21214;44.912;8.204;2023-06-22T07:27:44;100074.91;;;24.01;100.00
35023;BME280;21214;44.912;8.204;2023-06-22T07:30:10;100067.00;;;24.06;100.00
35023;BME280;21214;44.912;8.204;2023-06-22T07:32:36;100068.00;;;24.12;100.00
35023;BME280;21214;44.912;8.204;2023-06-22T07:35:02;100053.84;;;24.17;100.00
35023;BME280;21214;44.912;8.204;2023-06-22T07:37:30;100047.81;;;24.21;100.00
35023;BME280;21214;44.912;8.204;2023-06-22T07:39:55;100036.56;;;24.31;100.00
35023;BME280;21214;44.912;8.204;2023-06-22T07:42:24;100040.63;;;24.40;100.00
35023;BME280;21214;44.912;8.204;2023-06-22T07:44:50;100035.78;;;24.48;100.00
35023;BME280;21214;44.912;8.204;2023-06-22T07:47:16;100029.31;;;24.56;100.00
35023;BME280;21214;44.912;8.204;2023-06-22T07:49:43;100025.25;;;24.65;100.00
35023;BME280;21214;44.912;8.204;2023-06-22T07:52:08;100024.97;;;24.73;100.00
35023;BME280;21214;44.912;8.204;2023-06-22T07:54:34;100020.31;;;24.80;100.00
35023;BME280;21214;44.912;8.204;2023-06-22T07:56:59;100011.31;;;24.86;100.00
35023;BME280;21214;44.912;8.204;2023-06-22T07:59:24;100020.22;;;24.94;100.00
35023;BME280;21214;44.912;8.204;2023-06-22T08:01:50;100012.88;;;25.01;100.00
35023;BME280;21214;44.912;8.204;2023-06-22T08:04:15;100014.66;;;25.07;100.00
35023;BME280;21214;44.912;8.204;2023-06-22T08:06:41;100026.22;;;25.14;99.21
35023;BME280;21214;44.912;8.204;2023-06-22T08:09:06;100013.69;;;25.19;99.67
35023;BME280;21214;44.912;8.204;2023-06-22T08:11:31;100015.84;;;25.29;98.88
35023;BME280;21214;44.912;8.204;2023-06-22T08:13:57;100011.41;;;25.35;98.65
35023;BME280;21214;44.912;8.204;2023-06-22T08:16:23;100005.91;;;25.41;98.82
35023;BME280;21214;44.912;8.204;2023-06-22T08:18:49;100002.91;;;25.49;98.55
35023;BME280;21214;44.912;8.204;2023-06-22T08:21:14;100004.47;;;25.57;95.60
35023;BME280;21214;44.912;8.204;2023-06-22T08:23:39;99997.31;;;25.62;95.78
35023;BME280;21214;44.912;8.204;2023-06-22T08:26:05;99996.88;;;25.65;96.91
35023;BME280;21214;44.912;8.204;2023-06-22T08:28:30;99994.53;;;25.69;96.30
35023;BME280;21214;44.912;8.204;2023-06-22T08:30:55;99991.16;;;25.74;96.33
35023;BME280;21214;44.912;8.204;2023-06-22T08:33:21;99991.28;;;25.79;96.35
35023;BME280;21214;44.912;8.204;2023-06-22T08:35:49;99993.88;;;25.85;96.16
35023;BME280;21214;44.912;8.204;2023-06-22T08:38:15;99994.84;;;25.91;95.78
35023;BME280;21214;44.912;8.204;2023-06-22T08:40:40;99997.28;;;25.92;93.37
35023;BME280;21214;44.912;8.204;2023-06-22T08:43:06;99997.66;;;25.96;93.74
35023;BME280;21214;44.912;8.204;2023-06-22T08:45:31;99991.13;;;26.03;93.19
35023;BME280;21214;44.912;8.204;2023-06-22T08:47:56;99989.34;;;26.09;91.01
35023;BME280;21214;44.912;8.204;2023-06-22T08:50:22;99981.94;;;26.16;91.02
35023;BME280;21214;44.912;8.204;2023-06-22T08:52:47;99975.16;;;26.25;92.89
35023;BME280;21214;44.912;8.204;2023-06-22T08:55:13;99982.91;;;26.33;93.08
35023;BME280;21214;44.912;8.204;2023-06-22T08:57:39;99968.22;;;26.41;92.48
35023;BME280;21214;44.912;8.204;2023-06-22T09:00:05;99970.22;;;26.45;91.69
35023;BME280;21214;44.912;8.204;2023-06-22T09:02:36;99966.81;;;26.50;92.50
35023;BME280;21214;44.912;8.204;2023-06-22T09:05:02;99955.28;;;26.55;93.13
35023;BME280;21214;44.912;8.204;2023-06-22T09:07:28;99955.88;;;26.57;91.49
35023;BME280;21214;44.912;8.204;2023-06-22T09:09:53;99952.44;;;26.61;90.92
35023;BME280;21214;44.912;8.204;2023-06-22T09:12:20;99946.09;;;26.67;90.00
35023;BME280;21214;44.912;8.204;2023-06-22T09:14:50;99940.53;;;26.74;92.03
35023;BME280;21214;44.912;8.204;2023-06-22T09:17:16;99938.16;;;26.77;90.10
35023;BME280;21214;44.912;8.204;2023-06-22T09:19:41;99920.38;;;26.81;90.72
35023;BME280;21214;44.912;8.204;2023-06-22T09:22:06;99925.69;;;26.88;91.06
35023;BME280;21214;44.912;8.204;2023-06-22T09:24:32;99928.03;;;26.96;89.93
35023;BME280;21214;44.912;8.204;2023-06-22T09:26:58;99916.22;;;27.02;87.95
35023;BME280;21214;44.912;8.204;2023-06-22T09:29:23;99901.13;;;27.06;86.76
35023;BME280;21214;44.912;8.204;2023-06-22T09:31:48;99907.25;;;27.13;82.68
35023;BME280;21214;44.912;8.204;2023-06-22T09:34:14;99890.25;;;27.18;81.96
35023;BME280;21214;44.912;8.204;2023-06-22T09:36:40;99888.44;;;27.23;80.77
35023;BME280;21214;44.912;8.204;2023-06-22T09:39:06;99885.59;;;27.30;79.42
35023;BME280;21214;44.912;8.204;2023-06-22T09:41:32;99888.41;;;27.35;76.31
35023;BME280;21214;44.912;8.204;2023-06-22T09:43:57;99892.84;;;27.41;68.35
35023;BME280;21214;44.912;8.204;2023-06-22T09:46:22;99872.56;;;27.44;69.26
35023;BME280;21214;44.912;8.204;2023-06-22T09:48:50;99871.59;;;27.50;68.43
35023;BME280;21214;44.912;8.204;2023-06-22T09:51:15;99869.00;;;27.55;69.22
35023;BME280;21214;44.912;8.204;2023-06-22T09:53:41;99864.13;;;27.57;68.32
35023;BME280;21214;44.912;8.204;2023-06-22T09:56:06;99859.38;;;27.64;66.46
35023;BME280;21214;44.912;8.204;2023-06-22T09:58:31;99858.38;;;27.70;63.41
35023;BME280;21214;44.912;8.204;2023-06-22T10:00:56;99848.78;;;27.79;63.99
35023;BME280;21214;44.912;8.204;2023-06-22T10:03:22;99848.28;;;27.82;64.07
35023;BME280;21214;44.912;8.204;2023-06-22T10:05:48;99855.94;;;27.85;63.90
35023;BME280;21214;44.912;8.204;2023-06-22T10:08:13;99849.75;;;27.90;63.40
35023;BME280;21214;44.912;8.204;2023-06-22T10:10:39;99848.19;;;27.94;63.26
35023;BME280;21214;44.912;8.204;2023-06-22T10:13:08;99847.19;;;28.00;62.94
35023;BME280;21214;44.912;8.204;2023-06-22T10:15:35;99849.13;;;28.04;62.77
35023;BME280;21214;44.912;8.204;2023-06-22T10:18:00;99848.50;;;28.14;62.57
35023;BME280;21214;44.912;8.204;2023-06-22T10:20:25;99853.00;;;28.25;57.27
35023;BME280;21214;44.912;8.204;2023-06-22T10:22:51;99860.97;;;28.32;57.46
35023;BME280;21214;44.912;8.204;2023-06-22T10:25:17;99870.81;;;28.38;55.39
35023;BME280;21214;44.912;8.204;2023-06-22T10:27:42;99871.94;;;28.42;56.77
35023;BME280;21214;44.912;8.204;2023-06-22T10:30:08;99863.94;;;28.52;55.13
35023;BME280;21214;44.912;8.204;2023-06-22T10:32:34;99862.91;;;28.58;55.37
35023;BME280;21214;44.912;8.204;2023-06-22T10:34:59;99856.47;;;28.64;56.13
35023;BME280;21214;44.912;8.204;2023-06-22T10:37:25;99848.38;;;28.69;55.87
35023;BME280;21214;44.912;8.204;2023-06-22T10:39:50;99841.97;;;28.75;54.45
35023;BME280;21214;44.912;8.204;2023-06-22T10:42:15;99833.34;;;28.78;55.08
35023;BME280;21214;44.912;8.204;2023-06-22T10:44:41;99830.13;;;28.86;56.64
35023;BME280;21214;44.912;8.204;2023-06-22T10:47:08;99828.63;;;28.96;56.43
35023;BME280;21214;44.912;8.204;2023-06-22T10:49:33;99826.53;;;29.03;56.01
35023;BME280;21214;44.912;8.204;2023-06-22T10:51:59;99834.72;;;29.08;56.42
35023;BME280;21214;44.912;8.204;2023-06-22T10:54:24;99846.47;;;29.13;54.99
35023;BME280;21214;44.912;8.204;2023-06-22T10:56:49;99850.56;;;29.16;53.30
35023;BME280;21214;44.912;8.204;2023-06-22T10:59:15;99854.41;;;29.20;53.66
35023;BME280;21214;44.912;8.204;2023-06-22T11:01:41;99851.44;;;29.21;53.68
35023;BME280;21214;44.912;8.204;2023-06-22T11:04:07;99856.94;;;29.26;53.02
35023;BME280;21214;44.912;8.204;2023-06-22T11:06:33;99860.50;;;29.32;52.46
35023;BME280;21214;44.912;8.204;2023-06-22T11:08:58;99859.50;;;29.38;51.97
35023;BME280;21214;44.912;8.204;2023-06-22T11:11:25;99848.16;;;29.46;50.74
35023;BME280;21214;44.912;8.204;2023-06-22T11:13:50;99848.50;;;29.55;50.13
35023;BME280;21214;44.912;8.204;2023-06-22T11:16:15;99846.63;;;29.60;50.61
35023;BME280;21214;44.912;8.204;2023-06-22T11:18:41;99853.75;;;29.66;50.84
35023;BME280;21214;44.912;8.204;2023-06-22T11:21:06;99863.06;;;29.76;48.79
35023;BME280;21214;44.912;8.204;2023-06-22T11:23:31;99862.84;;;29.82;48.25
35023;BME280;21214;44.912;8.204;2023-06-22T11:25:57;99857.25;;;29.94;46.62
35023;BME280;21214;44.912;8.204;2023-06-22T11:28:22;99850.22;;;29.98;44.65
35023;BME280;21214;44.912;8.204;2023-06-22T11:30:47;99853.47;;;30.00;44.93
35023;BME280;21214;44.912;8.204;2023-06-22T11:33:13;99845.63;;;30.03;44.93
35023;BME280;21214;44.912;8.204;2023-06-22T11:35:38;99837.16;;;30.05;46.10
35023;BME280;21214;44.912;8.204;2023-06-22T11:38:04;99836.66;;;30.08;46.95
35023;BME280;21214;44.912;8.204;2023-06-22T11:40:30;99823.06;;;30.13;46.52
35023;BME280;21214;44.912;8.204;2023-06-22T11:42:55;99814.94;;;30.18;49.19
35023;BME280;21214;44.912;8.204;2023-06-22T11:45:21;99806.78;;;30.23;50.71
35023;BME280;21214;44.912;8.204;2023-06-22T11:47:46;99812.22;;;30.23;47.35
35023;BME280;21214;44.912;8.204;2023-06-22T11:50:11;99800.81;;;30.21;46.49
35023;BME280;21214;44.912;8.204;2023-06-22T11:52:37;99766.19;;;30.17;46.23
35023;BME280;21214;44.912;8.204;2023-06-22T11:55:03;99725.66;;;30.10;44.53
35023;BME280;21214;44.912;8.204;2023-06-22T11:57:30;99698.69;;;30.03;45.56
35023;BME280;21214;44.912;8.204;2023-06-22T11:59:55;99655.91;;;29.94;44.79
35023;BME280;21214;44.912;8.204;2023-06-22T12:02:21;99647.22;;;29.92;45.18
35023;BME280;21214;44.912;8.204;2023-06-22T12:04:46;99670.59;;;29.93;45.58
35023;BME280;21214;44.912;8.204;2023-06-22T12:07:11;99680.41;;;29.99;44.54
35023;BME280;21214;44.912;8.204;2023-06-22T12:09:37;99676.59;;;30.00;43.78
35023;BME280;21214;44.912;8.204;2023-06-22T12:12:02;99690.22;;;30.05;44.40
35023;BME280;21214;44.912;8.204;2023-06-22T12:14:28;99713.72;;;30.21;43.51
35023;BME280;21214;44.912;8.204;2023-06-22T12:16:53;99731.16;;;30.40;43.47
35023;BME280;21214;44.912;8.204;2023-06-22T12:19:18;99743.78;;;30.62;43.39
35023;BME280;21214;44.912;8.204;2023-06-22T12:21:44;99752.25;;;30.75;42.56
35023;BME280;21214;44.912;8.204;2023-06-22T12:24:11;99747.34;;;30.77;41.36
35023;BME280;21214;44.912;8.204;2023-06-22T12:26:36;99746.53;;;30.77;42.69
35023;BME280;21214;44.912;8.204;2023-06-22T12:29:01;99725.31;;;30.79;42.20
35023;BME280;21214;44.912;8.204;2023-06-22T12:31:27;99742.72;;;30.78;40.12
35023;BME280;21214;44.912;8.204;2023-06-22T12:33:52;99745.75;;;30.86;41.23
35023;BME280;21214;44.912;8.204;2023-06-22T12:36:17;99724.22;;;30.90;41.83
35023;BME280;21214;44.912;8.204;2023-06-22T12:38:43;99730.75;;;30.94;41.27
35023;BME280;21214;44.912;8.204;2023-06-22T12:41:08;99722.56;;;30.99;40.95
35023;BME280;21214;44.912;8.204;2023-06-22T12:43:33;99727.53;;;31.07;40.33
35023;BME280;21214;44.912;8.204;2023-06-22T12:45:58;99723.69;;;31.23;40.39
35023;BME280;21214;44.912;8.204;2023-06-22T12:48:43;99736.75;;;31.42;39.72
35023;BME280;21214;44.912;8.204;2023-06-22T12:51:09;99735.38;;;31.64;39.70
35023;BME280;21214;44.912;8.204;2023-06-22T12:53:34;99739.97;;;31.84;38.81